Time;durP1;ratioP1;P1;durP2;ratioP2;P2;SDS_P1;SDS_P2;PMS_P1;PMS_P2;Temp;Humidity;BMP_temperature;BMP_pressure;BME280_temperature;BME280_humidity;BME280_pressure;Samples;Min_cycle;Max_cycle;Signal;HPM_P1;HPM_P2
2022/06/17 00:00:23;;;;;;;4.60;4.40;;;18.30;99.90;;;;;;4997891;28;20468;-86
2022/06/17 00:02:48;;;;;;;5.00;4.90;;;17.10;99.90;;;;;;4973389;28;20767;-86
2022/06/17 00:05:14;;;;;;;5.53;5.33;;;;;;;;;;4987273;28;20667;-86
2022/06/17 00:07:42;;;;;;;4.97;4.87;;;17.10;99.90;;;;;;4971475;28;20546;-86
2022/06/17 00:10:26;;;;;;;5.10;4.90;;;16.90;99.90;;;;;;4983504;28;20447;-86
2022/06/17 00:12:52;;;;;;;6.43;5.83;;;16.80;99.90;;;;;;4972443;28;20490;-86
2022/06/17 00:15:19;;;;;;;5.00;4.90;;;16.90;99.90;;;;;;4991213;28;20432;-86
2022/06/17 00:17:55;;;;;;;5.07;4.97;;;16.90;99.90;;;;;;4981705;28;20229;-86
2022/06/17 00:20:23;;;;;;;4.50;4.40;;;17.30;99.90;;;;;;4964847;28;20439;-86
2022/06/17 00:22:50;;;;;;;6.47;5.87;;;17.30;99.90;;;;;;4988393;28;20490;-86
2022/06/17 00:25:27;;;;;;;5.10;4.83;;;17.80;99.90;;;;;;4977201;28;20435;-87
2022/06/17 00:27:54;;;;;;;5.80;5.60;;;17.30;99.90;;;;;;4980078;28;20805;-87
2022/06/17 00:30:23;;;;;;;4.53;4.43;;;18.50;99.90;;;;;;4971523;28;20433;-87
2022/06/17 00:32:52;;;;;;;4.90;4.70;;;17.00;99.90;;;;;;4971350;28;20449;-87
2022/06/17 00:35:18;;;;;;;4.90;4.80;;;16.90;99.90;;;;;;4984445;28;20471;-87
2022/06/17 00:37:44;;;;;;;5.10;4.90;;;;;;;;;;4990657;28;20440;-86
2022/06/17 00:40:14;;;;;;;5.43;5.23;;;16.90;99.90;;;;;;4973829;28;20438;-87
2022/06/17 00:42:41;;;;;;;5.23;4.90;;;16.80;99.90;;;;;;4979356;28;20503;-87
2022/06/17 00:45:18;;;;;;;5.33;4.80;;;16.50;99.90;;;;;;4982124;28;20950;-87
2022/06/17 00:47:54;;;;;;;5.30;4.87;;;16.80;99.90;;;;;;4967301;28;20433;-87
2022/06/17 00:50:22;;;;;;;5.60;5.30;;;16.60;99.90;;;;;;4980348;28;20412;-87
2022/06/17 00:52:59;;;;;;;4.40;4.30;;;16.80;99.90;;;;;;4976064;28;20805;-86
2022/06/17 00:55:42;;;;;;;5.77;5.47;;;17.10;99.90;;;;;;4981057;28;20941;-87
2022/06/17 00:58:22;;;;;;;5.20;4.80;;;16.60;99.90;;;;;;4982209;28;20504;-86
2022/06/17 01:00:52;;;;;;;5.70;5.20;;;16.60;99.90;;;;;;4958092;28;21022;-86
2022/06/17 01:03:24;;;;;;;5.50;5.20;;;16.50;99.90;;;;;;4979572;28;20426;-87
2022/06/17 01:06:02;;;;;;;5.80;5.40;;;16.50;99.90;;;;;;4971834;28;20943;-86
2022/06/17 01:11:27;;;;;;;5.60;5.20;;;;;;;;;;4990603;28;20448;-87
2022/06/17 01:13:53;;;;;;;5.40;5.27;;;16.60;99.90;;;;;;4983389;28;20425;-88
2022/06/17 01:16:27;;;;;;;5.13;4.73;;;16.10;99.90;;;;;;4984829;28;20436;-85
2022/06/17 01:18:54;;;;;;;5.50;5.17;;;16.20;99.90;;;;;;4972189;28;20421;-86
2022/06/17 01:21:43;;;;;;;6.07;5.67;;;16.30;99.90;;;;;;4978615;28;20620;-86
2022/06/17 01:24:09;;;;;;;6.27;5.90;;;16.40;99.90;;;;;;4997838;28;20435;-86
2022/06/17 01:26:35;;;;;;;6.10;5.47;;;16.10;99.90;;;;;;5000312;28;20523;-86
2022/06/17 01:29:01;;;;;;;5.10;5.00;;;;;;;;;;4971847;28;20429;-87
2022/06/17 01:31:28;;;;;;;5.50;5.20;;;16.30;99.90;;;;;;4983091;28;20444;-86
2022/06/17 01:33:53;;;;;;;5.40;5.30;;;16.20;99.90;;;;;;4971680;28;20419;-87
2022/06/17 01:36:27;;;;;;;5.20;5.00;;;16.20;99.90;;;;;;4977572;28;21168;-86
2022/06/17 01:38:56;;;;;;;5.50;5.20;;;16.70;99.90;;;;;;4982505;28;20548;-87
2022/06/17 01:41:25;;;;;;;5.10;5.00;;;16.20;99.90;;;;;;5003025;28;20471;-87
2022/06/17 01:44:04;;;;;;;5.30;5.20;;;16.00;99.90;;;;;;4982003;28;20946;-87
2022/06/17 01:46:36;;;;;;;6.80;6.50;;;16.10;99.90;;;;;;4981109;28;20432;-87
2022/06/17 01:49:06;;;;;;;5.53;5.23;;;16.10;99.90;;;;;;4971764;28;20430;-87
2022/06/17 01:51:36;;;;;;;5.37;5.13;;;16.10;99.90;;;;;;4982954;28;20428;-86
2022/06/17 01:54:07;;;;;;;5.60;5.40;;;16.10;99.90;;;;;;4980264;28;20835;-87
2022/06/17 01:56:37;;;;;;;5.83;5.53;;;15.60;99.90;;;;;;4989083;28;20436;-87
2022/06/17 01:59:18;;;;;;;5.47;5.27;;;15.60;99.90;;;;;;4980384;28;20892;-86
2022/06/17 02:01:48;;;;;;;5.30;5.07;;;15.60;99.90;;;;;;4986999;28;21028;-87
2022/06/17 02:04:19;;;;;;;5.93;5.73;;;16.40;99.90;;;;;;4978804;28;20440;-87
2022/06/17 02:07:13;;;;;;;6.27;5.73;;;15.90;99.90;;;;;;4972424;28;20459;-87
2022/06/17 02:09:39;;;;;;;5.53;5.23;;;15.90;99.90;;;;;;4981408;28;20515;-87
2022/06/17 02:12:05;;;;;;;6.53;5.93;;;15.50;99.90;;;;;;4983994;28;20951;-87
2022/06/17 02:14:32;;;;;;;6.13;5.93;;;;;;;;;;4990536;28;20461;-87
2022/06/17 02:17:02;;;;;;;5.90;5.60;;;15.30;99.90;;;;;;4977789;28;20468;-87
2022/06/17 02:19:32;;;;;;;5.67;5.43;;;15.40;99.90;;;;;;5002422;28;20823;-87
2022/06/17 02:22:04;;;;;;;5.50;5.30;;;15.50;99.90;;;;;;4980565;28;20472;-87
2022/06/17 02:24:30;;;;;;;6.00;5.63;;;15.50;99.90;;;;;;4984961;28;20428;-86
2022/06/17 02:27:01;;;;;;;5.57;5.37;;;15.50;99.90;;;;;;4978424;28;20440;-87
2022/06/17 02:29:30;;;;;;;5.60;5.30;;;15.50;99.90;;;;;;4991752;28;20312;-87
2022/06/17 02:31:59;;;;;;;5.50;5.20;;;15.60;99.90;;;;;;4979353;28;20809;-86
2022/06/17 02:34:26;;;;;;;5.17;4.70;;;15.60;99.90;;;;;;4993269;28;20436;-86
2022/06/17 02:37:03;;;;;;;5.57;5.20;;;15.60;99.90;;;;;;4991929;28;20455;-86
2022/06/17 02:39:29;;;;;;;5.63;5.37;;;;;;;;;;4976469;28;20830;-86
2022/06/17 02:41:56;;;;;;;5.73;5.30;;;15.40;99.90;;;;;;4979385;28;20472;-86
2022/06/17 02:44:25;;;;;;;6.03;5.73;;;15.60;99.90;;;;;;4972634;28;20503;-86
2022/06/17 02:46:54;;;;;;;5.67;5.27;;;15.70;99.90;;;;;;4998679;28;20957;-86
2022/06/17 02:49:24;;;;;;;5.80;5.60;;;15.60;99.90;;;;;;4968708;28;20445;-87
2022/06/17 02:51:50;;;;;;;5.40;5.10;;;;;;;;;;4983254;28;20463;-87
2022/06/17 02:54:24;;;;;;;5.13;5.00;;;15.70;99.90;;;;;;4982695;28;20444;-87
2022/06/17 02:56:53;;;;;;;5.20;5.00;;;15.80;99.90;;;;;;4977809;28;20440;-87
2022/06/17 02:59:30;;;;;;;5.20;5.10;;;15.60;99.90;;;;;;4989374;28;20452;-87
2022/06/17 03:02:00;;;;;;;5.60;5.40;;;15.60;99.90;;;;;;4964122;28;20470;-87
2022/06/17 03:04:28;;;;;;;5.50;5.30;;;15.60;99.90;;;;;;4975916;28;20430;-86
2022/06/17 03:06:54;;;;;;;5.87;5.67;;;;;;;;;;4989076;28;20476;-86
2022/06/17 03:09:29;;;;;;;5.17;4.97;;;15.60;99.90;;;;;;4970848;28;20480;-86
2022/06/17 03:12:09;;;;;;;5.63;5.43;;;15.50;99.90;;;;;;4964390;28;20531;-87
2022/06/17 03:15:01;;;;;;;5.87;5.63;;;15.50;99.90;;;;;;4963678;28;20461;-87
2022/06/17 03:17:27;;;;;;;5.93;5.37;;;15.50;99.90;;;;;;4959113;28;20811;-86
2022/06/17 03:19:56;;;;;;;5.50;5.07;;;15.40;99.90;;;;;;4962847;28;20431;-87
2022/06/17 03:22:24;;;;;;;5.90;5.60;;;15.10;99.90;;;;;;4963055;28;20247;-87
2022/06/17 03:24:58;;;;;;;6.10;5.50;;;15.50;99.90;;;;;;4989400;28;20450;-85
2022/06/17 03:27:34;;;;;;;6.20;5.83;;;15.60;99.90;;;;;;4973616;28;20438;-87
2022/06/17 03:30:00;;;;;;;7.20;5.43;;;15.30;99.90;;;;;;4967792;28;20928;-87
2022/06/17 03:32:35;;;;;;;6.30;5.87;;;15.30;99.90;;;;;;4965987;28;20504;-87
2022/06/17 03:35:01;;;;;;;5.73;5.43;;;15.00;99.90;;;;;;4952628;29;20436;-85
2022/06/17 03:38:01;;;;;;;5.80;5.70;;;15.30;99.90;;;;;;4967077;28;20446;-85
2022/06/17 03:40:35;;;;;;;6.00;5.80;;;15.50;99.90;;;;;;4961609;28;20253;-85
2022/06/17 03:43:10;;;;;;;6.40;6.00;;;15.30;99.90;;;;;;4958320;28;20469;-86
2022/06/17 03:45:44;;;;;;;6.40;5.80;;;15.20;99.90;;;;;;4972254;28;20516;-86
2022/06/17 03:48:33;;;;;;;6.13;5.93;;;15.40;99.90;;;;;;4969839;28;20424;-85
2022/06/17 03:50:59;;;;;;;5.70;5.47;;;15.50;99.90;;;;;;4954014;28;20991;-85
2022/06/17 03:53:34;;;;;;;6.50;6.17;;;15.40;99.90;;;;;;4972133;28;20454;-85
2022/06/17 03:56:10;;;;;;;6.80;6.47;;;15.50;99.90;;;;;;4983593;28;20429;-86
2022/06/17 03:58:38;;;;;;;6.20;5.80;;;15.30;99.90;;;;;;4981434;28;20524;-85
2022/06/17 04:01:19;;;;;;;4.60;4.47;;;15.30;99.90;;;;;;4969444;28;20439;-85
2022/06/17 04:03:56;;;;;;;6.03;5.73;;;15.30;99.90;;;;;;4969402;28;20437;-85
2022/06/17 04:06:27;;;;;;;6.87;6.47;;;15.50;99.90;;;;;;4973151;28;20476;-85
2022/06/17 04:09:06;;;;;;;6.30;6.10;;;15.30;99.90;;;;;;4970786;28;20865;-85
2022/06/17 04:11:42;;;;;;;6.17;5.87;;;15.40;99.90;;;;;;4981243;28;20801;-85
2022/06/17 04:14:21;;;;;;;5.37;5.13;;;15.30;99.90;;;;;;4960488;28;20987;-85
2022/06/17 04:17:08;;;;;;;6.20;5.90;;;15.40;99.90;;;;;;5003367;28;20506;-85
2022/06/17 04:19:34;;;;;;;6.17;5.87;;;15.50;99.90;;;;;;4980798;28;20485;-85
2022/06/17 04:22:05;;;;;;;6.20;5.90;;;15.40;99.90;;;;;;4991823;28;20531;-85
2022/06/17 04:24:32;;;;;;;6.00;5.70;;;15.90;99.90;;;;;;4971629;28;20261;-86
2022/06/17 04:27:05;;;;;;;5.13;5.03;;;15.40;99.90;;;;;;4994615;28;20445;-85
2022/06/17 04:29:31;;;;;;;6.10;5.80;;;;;;;;;;4977532;28;20460;-86
2022/06/17 04:32:09;;;;;;;6.17;5.67;;;15.40;99.90;;;;;;5000101;28;21083;-86
2022/06/17 04:34:35;;;;;;;5.87;5.50;;;15.50;99.90;;;;;;4979324;28;20428;-86
2022/06/17 04:37:04;;;;;;;6.63;6.10;;;15.60;99.90;;;;;;4973201;28;21055;-85
2022/06/17 04:39:55;;;;;;;5.93;5.60;;;15.90;99.90;;;;;;5000446;28;20213;-87
2022/06/17 04:42:29;;;;;;;5.90;5.40;;;15.50;99.90;;;;;;4980864;28;20499;-86
2022/06/17 04:44:54;;;;;;;10.20;9.30;;;15.30;99.90;;;;;;4976762;28;20583;-87
2022/06/17 04:47:21;;;;;;;6.73;6.30;;;15.20;99.90;;;;;;4978339;28;20497;-87
2022/06/17 04:49:56;;;;;;;5.97;5.70;;;15.30;99.90;;;;;;4985251;28;20193;-86
2022/06/17 04:52:34;;;;;;;7.03;6.43;;;15.50;99.90;;;;;;4966389;28;20445;-87
2022/06/17 04:55:02;;;;;;;5.60;5.20;;;15.70;99.90;;;;;;4985674;28;20421;-86
2022/06/17 04:57:29;;;;;;;6.53;6.00;;;15.80;99.90;;;;;;4984009;28;20439;-90
2022/06/17 04:59:58;;;;;;;5.20;5.00;;;15.90;99.90;;;;;;4989628;28;20482;-91
2022/06/17 05:02:25;;;;;;;6.10;5.70;;;;;;;;;;4997270;28;20837;-90
2022/06/17 05:04:54;;;;;;;6.70;6.20;;;17.30;99.90;;;;;;5006114;28;20436;-89
2022/06/17 05:07:20;;;;;;;5.27;4.97;;;;;;;;;;4997269;28;20511;-92
2022/06/17 05:09:54;;;;;;;6.38;5.97;;;18.10;99.90;;;;;;4996322;28;20490;-85
2022/06/17 05:12:26;;;;;;;5.50;5.40;;;18.20;99.90;;;;;;4995787;28;20279;-91
2022/06/17 05:14:57;;;;;;;6.47;6.07;;;18.60;99.90;;;;;;4997457;28;20428;-91
2022/06/17 05:17:23;;;;;;;5.30;5.10;;;;;;;;;;5003003;28;20429;-90
2022/06/17 05:19:49;;;;;;;6.03;5.53;;;18.70;99.90;;;;;;5022930;28;20807;-90
2022/06/17 05:22:22;;;;;;;5.83;5.63;;;19.20;99.90;;;;;;4999431;28;20464;-91
2022/06/17 05:24:48;;;;;;;6.40;5.90;;;19.30;99.90;;;;;;4976143;28;20176;-88
2022/06/17 05:27:13;;;;;;;5.67;5.37;;;20.30;99.90;;;;;;5016248;28;20444;-91
2022/06/17 05:29:39;;;;;;;5.33;5.13;;;19.70;99.90;;;;;;5021535;28;20182;-90
2022/06/17 05:32:05;;;;;;;6.43;5.87;;;;;;;;;;5015914;28;20209;-91
2022/06/17 05:34:30;;;;;;;5.50;5.30;;;20.50;99.90;;;;;;5013288;28;20283;-91
2022/06/17 05:36:57;;;;;;;5.00;4.73;;;;;;;;;;5010174;28;20547;-89
2022/06/17 05:39:23;;;;;;;5.53;5.30;;;21.00;99.90;;;;;;5013691;28;20187;-91
2022/06/17 05:41:49;;;;;;;5.00;4.83;;;;;;;;;;5030852;28;21078;-89
2022/06/17 05:44:15;;;;;;;7.47;5.73;;;;;;;;;;5010866;28;20937;-90
2022/06/17 05:46:47;;;;;;;5.47;5.00;;;;;;;;;;5009205;28;20451;-91
2022/06/17 05:49:13;;;;;;;5.07;4.63;;;;;;;;;;4999482;28;20562;-89
2022/06/17 05:51:42;;;;;;;5.70;4.40;;;;;;;;;;5009002;28;20436;-92
2022/06/17 05:54:16;;;;;;;4.70;4.50;;;;;;;;;;4998098;28;20436;-91
2022/06/17 05:56:45;;;;;;;4.90;4.60;;;;;;;;;;4978533;28;20449;-92
2022/06/17 05:59:21;;;;;;;5.50;5.20;;;;;;;;;;5201426;22;22114;-92
2022/06/17 06:02:17;;;;;;;5.27;4.93;;;19.90;99.90;;;;;;5158807;23;20483;-93
2022/06/17 06:04:50;;;;;;;5.30;5.03;;;;;;;;;;4984067;28;20434;-93
2022/06/17 06:07:19;;;;;;;4.60;4.40;;;;;;;;;;4714001;22;10002353;-93
2022/06/17 06:09:55;;;;;;;;;;;;;;;;;;;;;
2022/06/17 06:18:50;;;;;;;5.00;4.70;;;;;;;;;;4929571;29;20444;-93
2022/06/17 06:21:37;;;;;;;5.43;4.60;;;;;;;;;;4920412;29;20479;-93
2022/06/17 06:24:35;;;;;;;4.87;4.57;;;;;;;;;;4906082;29;20432;-95
2022/06/17 06:27:33;;;;;;;5.20;5.00;;;20.90;99.90;;;;;;4896116;29;20442;-90
2022/06/17 06:30:32;;;;;;;4.30;4.20;;;21.00;99.90;;;;;;4913937;29;20491;-94
2022/06/17 06:33:48;;;;;;;4.67;4.37;;;21.20;99.90;;;;;;4924358;29;20425;-94
2022/06/17 06:40:02;;;;;;;4.60;4.23;;;;;;;;;;4861476;29;20455;-92
2022/06/17 06:42:31;;;;;;;4.37;4.10;;;;;;;;;;4890603;29;20491;-93
2022/06/17 06:45:37;;;;;;;4.20;4.07;;;21.90;99.90;;;;;;4978520;28;20553;-92
2022/06/17 06:48:46;;;;;;;4.87;4.47;;;22.10;99.90;;;;;;4927931;29;20486;-92
2022/06/17 06:51:36;;;;;;;4.87;4.57;;;22.50;99.90;;;;;;4963272;28;20520;-93
2022/06/17 07:02:14;;;;;;;4.20;3.60;;;;;;;;;;5081982;23;20482;-93
2022/06/17 07:04:44;;;;;;;3.40;3.30;;;;;;;;;;5001808;28;20848;-92
2022/06/17 07:07:11;;;;;;;3.70;3.50;;;28.40;88.80;;;;;;4970263;28;20436;-92
2022/06/17 07:09:37;;;;;;;4.73;3.40;;;;;;;;;;4966125;28;20501;-91
2022/06/17 07:12:03;;;;;;;2.00;2.00;;;;;;;;;;5001093;28;20440;-92
2022/06/17 07:14:30;;;;;;;6.07;5.77;;;;;;;;;;4985165;28;20432;-92
2022/06/17 07:16:56;;;;;;;2.57;2.53;;;;;;;;;;4970398;28;20429;-93
2022/06/17 07:19:24;;;;;;;2.50;2.30;;;;;;;;;;5008210;28;20495;-91
2022/06/17 07:21:51;;;;;;;2.57;2.47;;;;;;;;;;4984759;28;20564;-92
2022/06/17 07:24:20;;;;;;;2.47;2.37;;;;;;;;;;4985873;28;20436;-90
2022/06/17 07:26:55;;;;;;;1.63;1.63;;;;;;;;;;4979709;28;20466;-89
2022/06/17 07:29:24;;;;;;;3.10;2.70;;;;;;;;;;4969727;28;20437;-94
2022/06/17 07:31:57;;;;;;;2.13;2.13;;;;;;;;;;4985988;28;20432;-94
2022/06/17 07:40:01;;;;;;;2.80;2.70;;;;;;;;;;5023300;28;20462;-93
2022/06/17 07:42:47;;;;;;;5.13;2.73;;;31.20;54.40;;;;;;4980277;28;20475;-94
2022/06/17 07:45:18;;;;;;;2.77;2.57;;;31.50;53.80;;;;;;5005951;28;20415;-92
2022/06/17 07:48:05;;;;;;;4.00;3.10;;;31.40;54.60;;;;;;4971897;28;20446;-94
2022/06/17 07:50:33;;;;;;;2.80;2.60;;;31.40;54.80;;;;;;4991821;28;20415;-88
2022/06/17 07:52:59;;;;;;;2.73;2.27;;;;;;;;;;5011798;28;20419;-92
2022/06/17 07:55:31;;;;;;;4.83;2.43;;;;;;;;;;5009512;28;20434;-92
2022/06/17 07:57:59;;;;;;;2.43;2.27;;;;;;;;;;4992037;28;20435;-91
2022/06/17 08:00:35;;;;;;;2.53;2.33;;;31.90;54.10;;;;;;5005282;28;20412;-90
2022/06/17 08:03:02;;;;;;;2.90;2.70;;;;;;;;;;4987631;28;20472;-91
2022/06/17 08:05:39;;;;;;;2.40;2.30;;;31.30;53.50;;;;;;5006054;28;20474;-93
2022/06/17 08:08:08;;;;;;;4.07;3.00;;;;;;;;;;4992570;28;20436;-91
2022/06/17 08:10:48;;;;;;;2.60;2.40;;;30.80;54.80;;;;;;5002385;28;20432;-92
2022/06/17 08:13:18;;;;;;;2.70;2.50;;;;;;;;;;4975629;28;20436;-91
2022/06/17 08:15:44;;;;;;;3.27;2.97;;;;;;;;;;5010560;28;20466;-91
2022/06/17 08:21:15;;;;;;;3.47;3.37;;;31.00;54.40;;;;;;5425741;22;21065;-91
2022/06/17 08:24:13;;;;;;;2.90;2.90;;;;;;;;;;5010626;28;20461;-94
2022/06/17 08:26:42;;;;;;;2.80;2.80;;;;;;;;;;4994190;28;20432;-91
2022/06/17 08:29:08;;;;;;;3.13;2.90;;;;;;;;;;5003624;28;20452;-93
2022/06/17 08:31:34;;;;;;;3.73;2.87;;;;;;;;;;5011149;23;20548;-93
2022/06/17 08:34:30;;;;;;;2.73;2.73;;;32.90;52.60;;;;;;4992184;28;20449;-94
2022/06/17 08:36:56;;;;;;;2.70;2.60;;;;;;;;;;4981801;28;20440;-95
2022/06/17 08:39:33;;;;;;;2.67;2.57;;;;;;;;;;5006732;28;20461;-94
2022/06/17 08:42:08;;;;;;;6.10;2.93;;;;;;;;;;4990337;28;20518;-93
2022/06/17 08:44:52;;;;;;;2.53;2.43;;;;;;;;;;4998717;28;20488;-93
2022/06/17 08:47:44;;;;;;;3.73;2.90;;;32.80;53.30;;;;;;5010622;28;20511;-86
2022/06/17 08:50:41;;;;;;;2.93;2.93;;;31.60;50.40;;;;;;4972864;28;20426;-93
2022/06/17 08:53:09;;;;;;;3.23;2.90;;;;;;;;;;4650064;28;9999929;-93
2022/06/17 08:55:44;;;;;;;2.50;2.40;;;;;;;;;;4993652;28;20452;-92
2022/06/17 08:58:56;;;;;;;3.47;3.13;;;32.80;49.30;;;;;;4994292;28;20428;-93
2022/06/17 09:02:07;;;;;;;3.03;2.77;;;33.10;51.40;;;;;;5244858;23;20484;-90
2022/06/17 09:04:44;;;;;;;7.53;2.70;;;;;;;;;;4955060;29;20459;-91
2022/06/17 09:07:24;;;;;;;2.93;2.57;;;34.40;50.60;;;;;;4967454;28;20437;-92
2022/06/17 09:10:36;;;;;;;2.90;2.70;;;35.10;50.70;;;;;;4976674;28;20463;-93
2022/06/17 09:13:19;;;;;;;2.60;2.50;;;;;;;;;;4971089;28;20439;-94
2022/06/17 09:15:45;;;;;;;2.93;2.73;;;;;;;;;;4972900;28;20460;-93
2022/06/17 09:18:26;;;;;;;2.60;2.50;;;;;;;;;;5017216;28;20424;-93
2022/06/17 09:27:37;;;;;;;2.90;2.40;;;35.90;50.00;;;;;;5035819;22;20528;-90
2022/06/17 09:30:18;;;;;;;2.63;2.63;;;36.30;49.80;;;;;;4980137;28;20413;-93
2022/06/17 09:33:21;;;;;;;2.40;2.30;;;36.10;49.70;;;;;;5006213;28;20503;-91
2022/06/17 09:38:41;;;;;;;2.80;2.37;;;36.30;48.80;;;;;;5108438;22;20495;-90
2022/06/17 09:41:18;;;;;;;3.33;3.07;;;36.30;49.60;;;;;;5034501;28;20446;-94
2022/06/17 09:44:07;;;;;;;3.33;2.83;;;36.30;48.50;;;;;;4652163;28;10000479;-92
2022/06/17 09:46:43;;;;;;;2.50;2.30;;;36.80;48.60;;;;;;4983738;28;20197;-92
2022/06/17 09:49:24;;;;;;;2.50;2.27;;;36.60;48.70;;;;;;4999838;28;20565;-92
2022/06/17 09:52:10;;;;;;;2.47;2.27;;;37.10;46.00;;;;;;4995112;28;20435;-93
2022/06/17 09:54:38;;;;;;;2.93;2.67;;;37.50;48.70;;;;;;4992631;28;20930;-93
2022/06/17 09:57:28;;;;;;;2.30;2.30;;;37.80;48.10;;;;;;5008815;28;20518;-90
2022/06/17 10:00:03;;;;;;;2.30;2.10;;;;;;;;;;5003015;28;20536;-94
2022/06/17 10:02:32;;;;;;;2.40;2.30;;;;;;;;;;5028619;28;20535;-92
2022/06/17 10:05:01;;;;;;;2.37;2.27;;;36.00;48.70;;;;;;5004067;28;20435;-92
2022/06/17 10:07:27;;;;;;;3.33;2.47;;;;;;;;;;5028094;28;20482;-93
2022/06/17 10:10:18;;;;;;;5.70;2.03;;;35.80;48.50;;;;;;5021375;28;20428;-94
2022/06/17 10:12:48;;;;;;;2.53;2.30;;;;;;;;;;5003192;28;20419;-92
2022/06/17 10:18:31;;;;;;;2.40;2.30;;;36.30;47.10;;;;;;5029823;28;20522;-92
2022/06/17 10:19:04;;;;;;;2.40;2.30;;;36.40;49.00;;;;;;5027747;28;20466;-90
2022/06/17 10:21:33;;;;;;;5.40;2.40;;;36.10;49.10;;;;;;4980121;28;20461;-89
2022/06/17 10:24:18;;;;;;;2.13;2.13;;;36.00;48.60;;;;;;5004009;28;20445;-90
2022/06/17 10:27:10;;;;;;;3.70;2.40;;;36.00;48.30;;;;;;4967276;28;20437;-91
2022/06/17 10:29:58;;;;;;;2.37;2.07;;;36.80;45.40;;;;;;4985987;28;20428;-89
2022/06/17 10:32:32;;;;;;;2.13;2.03;;;;;;;;;;4996924;28;20470;-91
2022/06/17 10:35:03;;;;;;;2.50;2.10;;;38.60;47.60;;;;;;5020353;28;20520;-91
2022/06/17 10:37:32;;;;;;;1.73;1.73;;;37.80;47.10;;;;;;4984298;28;20508;-91
2022/06/17 10:39:59;;;;;;;2.37;2.27;;;;;;;;;;5005178;28;20472;-92
2022/06/17 10:42:28;;;;;;;59.40;54.33;;;37.10;47.00;;;;;;5000719;28;20467;-90
2022/06/17 10:45:17;;;;;;;;;;;;;;;;;;;;;
2022/06/17 10:48:00;;;;;;;2.37;2.20;;;36.50;46.40;;;;;;5005570;28;20514;-91
2022/06/17 10:50:31;;;;;;;2.13;2.03;;;36.60;46.50;;;;;;4976921;28;20512;-93
2022/06/17 10:53:21;;;;;;;1.57;1.47;;;37.10;46.70;;;;;;4990894;28;20859;-93
2022/06/17 10:55:53;;;;;;;2.17;1.93;;;37.10;46.70;;;;;;5002142;28;20404;-93
2022/06/17 10:58:40;;;;;;;1.50;1.50;;;36.70;47.50;;;;;;5020851;28;20454;-93
2022/06/17 11:04:39;;;;;;;5.13;4.93;;;36.90;45.80;;;;;;4991837;28;20448;-88
2022/06/17 11:08:06;;;;;;;3.27;2.33;;;36.90;45.20;;;;;;4983909;28;20607;-87
2022/06/17 11:11:02;;;;;;;;;;;;;;;;;;;;;
2022/06/17 11:13:44;;;;;;;2.07;2.07;;;;;;;;;;4996249;28;20504;-88
2022/06/17 11:16:40;;;;;;;2.00;1.97;;;37.30;46.40;;;;;;5004676;28;20751;-91
2022/06/17 11:19:34;;;;;;;1.37;1.37;;;38.00;45.60;;;;;;5000044;28;20684;-89
2022/06/17 11:22:09;;;;;;;1.97;1.97;;;37.90;45.60;;;;;;5006247;28;20464;-92
2022/06/17 11:24:42;;;;;;;1.37;1.37;;;37.80;46.30;;;;;;4973731;28;20447;-88
2022/06/17 11:27:21;;;;;;;1.83;1.73;;;37.50;46.60;;;;;;4993530;28;20412;-88
2022/06/17 11:30:13;;;;;;;1.70;1.70;;;36.50;46.80;;;;;;4989997;28;20490;-88
2022/06/17 11:32:45;;;;;;;1.63;1.63;;;36.30;47.50;;;;;;4992152;28;20840;-87
2022/06/17 11:35:33;;;;;;;1.73;1.73;;;36.00;46.80;;;;;;4994662;28;20459;-89
2022/06/17 11:38:03;;;;;;;1.73;1.73;;;35.50;47.30;;;;;;4990172;28;20584;-89
2022/06/17 11:40:42;;;;;;;2.10;2.00;;;35.70;48.00;;;;;;4990506;28;20475;-91
2022/06/17 11:43:27;;;;;;;1.90;1.90;;;35.90;47.80;;;;;;4983383;28;20735;-90
2022/06/17 11:45:53;;;;;;;2.00;2.00;;;;;;;;;;4994820;28;20448;-88
2022/06/17 11:48:21;;;;;;;2.40;2.30;;;36.70;46.90;;;;;;4993125;28;20429;-90
2022/06/17 11:51:10;;;;;;;1.93;1.93;;;36.90;46.60;;;;;;4993820;28;20441;-89
2022/06/17 11:53:50;;;;;;;2.20;2.00;;;37.10;45.90;;;;;;4982634;28;20438;-89
2022/06/17 11:56:36;;;;;;;1.67;1.67;;;37.20;45.90;;;;;;4974245;28;20713;-90
2022/06/17 11:59:15;;;;;;;1.60;1.60;;;37.10;46.30;;;;;;4997936;28;20527;-91
2022/06/17 12:01:50;;;;;;;1.77;1.77;;;37.30;45.90;;;;;;4976137;28;20467;-91
2022/06/17 12:04:38;;;;;;;1.80;1.80;;;37.60;43.80;;;;;;4653463;28;10000576;-89
2022/06/17 12:07:28;;;;;;;1.80;1.80;;;;;;;;;;4996783;28;20193;-93
2022/06/17 12:10:04;;;;;;;3.20;2.37;;;38.70;45.80;;;;;;4982198;28;20436;-92
2022/06/17 12:12:31;;;;;;;1.70;1.70;;;39.40;46.40;;;;;;4994834;28;20420;-89
2022/06/17 12:15:16;;;;;;;2.30;1.70;;;39.50;46.60;;;;;;5014588;28;21033;-87
2022/06/17 12:17:42;;;;;;;2.60;2.60;;;;;;;;;;4973105;28;20432;-90
2022/06/17 12:23:30;;;;;;;1.73;1.63;;;39.80;41.40;;;;;;5059299;22;20546;-92
2022/06/17 12:25:56;;;;;;;1.30;1.30;;;;;;;;;;4972156;28;20811;-91
2022/06/17 12:28:25;;;;;;;1.20;1.20;;;;;;;;;;4984175;28;20400;-90
2022/06/17 12:31:07;;;;;;;1.40;1.40;;;38.90;40.60;;;;;;4986368;28;20462;-93
2022/06/17 12:33:39;;;;;;;2.33;2.03;;;;;;;;;;4998045;28;20415;-90
2022/06/17 12:36:42;;;;;;;1.93;1.93;;;39.20;41.30;;;;;;4993715;28;20486;-92
2022/06/17 12:39:20;;;;;;;1.80;1.70;;;38.40;41.40;;;;;;4983677;28;20443;-91
2022/06/17 12:41:50;;;;;;;2.17;2.17;;;;;;;;;;4982134;28;20507;-90
2022/06/17 12:44:25;;;;;;;1.80;1.80;;;;;;;;;;4985961;28;20447;-90
2022/06/17 12:47:05;;;;;;;1.67;1.67;;;38.20;52.80;;;;;;4979582;28;20444;-91
2022/06/17 12:55:41;;;;;;;2.70;2.30;;;37.50;53.00;;;;;;4991903;28;20419;-93
2022/06/17 12:58:28;;;;;;;2.10;2.00;;;37.70;39.50;;;;;;4985659;28;20443;-91
2022/06/17 13:01:11;;;;;;;2.17;2.07;;;37.90;42.50;;;;;;4984383;28;20851;-93
2022/06/17 13:04:00;;;;;;;1.87;1.60;;;37.90;42.40;;;;;;4983145;28;20833;-91
2022/06/17 13:06:54;;;;;;;4.23;1.97;;;38.20;42.90;;;;;;4990199;28;20452;-89
2022/06/17 13:09:55;;;;;;;2.10;2.10;;;38.00;43.30;;;;;;4978833;28;20530;-91
2022/06/17 13:12:33;;;;;;;2.53;2.33;;;37.70;42.90;;;;;;4993208;28;20558;-92
2022/06/17 13:15:33;;;;;;;2.00;1.97;;;37.50;42.80;;;;;;4983881;28;20437;-92
2022/06/17 13:18:12;;;;;;;2.10;2.00;;;37.00;43.00;;;;;;4979224;28;20472;-90
2022/06/17 13:21:00;;;;;;;2.20;2.20;;;37.20;40.40;;;;;;4981669;28;20543;-92
2022/06/17 13:23:46;;;;;;;3.23;2.10;;;37.10;42.40;;;;;;4982144;28;20479;-87
2022/06/17 13:26:12;;;;;;;1.97;1.87;;;;;;;;;;4968268;28;21002;-91
2022/06/17 13:29:13;;;;;;;1.50;1.50;;;37.00;41.70;;;;;;4968553;28;20528;-91
2022/06/17 13:31:51;;;;;;;1.27;1.27;;;;;;;;;;4993578;28;20433;-90
2022/06/17 13:34:21;;;;;;;2.57;1.60;;;;;;;;;;4965809;28;20444;-89
2022/06/17 13:37:04;;;;;;;2.10;1.60;;;36.10;42.20;;;;;;4963265;28;20809;-90
2022/06/17 13:39:37;;;;;;;1.50;1.40;;;35.60;42.10;;;;;;4982556;28;20433;-92
2022/06/17 13:42:05;;;;;;;2.07;1.93;;;;;;;;;;4965934;28;20470;-90
2022/06/17 13:44:34;;;;;;;1.60;1.50;;;;;;;;;;4974806;28;20445;-89
2022/06/17 13:47:24;;;;;;;2.30;1.50;;;37.20;41.40;;;;;;4967763;28;21039;-90
2022/06/17 13:50:22;;;;;;;2.10;1.93;;;37.90;41.20;;;;;;4989859;28;20409;-89
2022/06/17 13:53:23;;;;;;;2.40;2.20;;;38.30;38.50;;;;;;4970867;28;20447;-88
2022/06/17 13:56:29;;;;;;;1.50;1.50;;;38.70;39.10;;;;;;4959670;28;20801;-91
2022/06/17 13:59:09;;;;;;;1.60;1.60;;;38.90;40.10;;;;;;4963446;28;20429;-89
2022/06/17 14:01:59;;;;;;;1.87;1.77;;;;;;;;;;4972381;28;20557;-89
2022/06/17 14:04:25;;;;;;;2.20;2.00;;;;;;;;;;4957921;28;20426;-91
2022/06/17 14:06:51;;;;;;;1.77;1.77;;;;;;;;;;4989626;28;20455;-91
2022/06/17 14:09:26;;;;;;;3.67;2.00;;;;;;;;;;4965899;28;20438;-90
2022/06/17 14:11:56;;;;;;;2.03;2.03;;;;;;;;;;4954478;28;20433;-91
2022/06/17 14:14:22;;;;;;;1.50;1.50;;;;;;;;;;4975994;28;20429;-88
2022/06/17 14:17:05;;;;;;;3.60;1.93;;;;;;;;;;4963955;28;20491;-89
2022/06/17 14:19:50;;;;;;;2.10;1.90;;;37.40;38.80;;;;;;4984007;28;20429;-92
2022/06/17 14:22:31;;;;;;;2.17;2.07;;;;;;;;;;4957603;28;20488;-90
2022/06/17 14:25:20;;;;;;;1.90;1.90;;;37.00;42.40;;;;;;5075004;22;20523;-92
2022/06/17 14:28:35;;;;;;;2.30;2.30;;;36.80;42.60;;;;;;4973992;28;20481;-90
2022/06/17 14:31:22;;;;;;;2.47;2.27;;;36.60;43.40;;;;;;4963523;28;20493;-89
2022/06/17 14:33:52;;;;;;;1.70;1.70;;;;;;;;;;4955061;28;20972;-90
2022/06/17 14:36:59;;;;;;;2.30;2.20;;;35.50;55.40;;;;;;4973535;28;20457;-95
2022/06/17 14:39:32;;;;;;;2.00;1.90;;;;;;;;;;4990184;28;20495;-93
2022/06/17 14:42:21;;;;;;;2.30;2.00;;;35.40;44.20;;;;;;5175808;22;20555;-93
2022/06/17 14:44:50;;;;;;;2.07;2.03;;;;;;;;;;4995438;28;20404;-90
2022/06/17 14:47:32;;;;;;;2.10;2.00;;;;;;;;;;4992546;28;20428;-91
2022/06/17 14:50:32;;;;;;;2.10;2.00;;;35.00;55.80;;;;;;4975788;28;20457;-91
2022/06/17 14:59:15;;;;;;;2.83;2.73;;;33.40;42.00;;;;;;5036407;28;20509;-90
2022/06/17 15:02:22;;;;;;;2.17;2.00;;;33.30;56.40;;;;;;5204219;22;20487;-92
2022/06/17 15:05:01;;;;;;;2.40;2.30;;;32.80;46.10;;;;;;4995176;28;20436;-94
2022/06/17 15:08:09;;;;;;;2.40;2.40;;;32.40;46.10;;;;;;4989599;28;20444;-94
2022/06/17 15:10:56;;;;;;;;;;;;;;;;;;;;;